aviador You're here:

YGLA Decoded Metar

in
Report Time2017-11-24 01:30:00
UTC Time2017-11-24 02:08:56
Flight Rules vfr VFR
Wind080° at 10 kt
W.Decomp.*RWY 10: 9.4 kt HW 3.4 kt LCW
W.Rank080° ranks 17
Current wind is above 080° avg. (8.7)
Visibility9999 m
Phenomena:N/A
Clouds:Scattered 039 Hf
Expected CloudBase > 4,800 ft AGL from Temp-Dew spread
CeilingNone
Temp29°C
Dew Point17°C (48% RH)
Heat Index29.4°C
AAT27.7°C
QNH1013 hPa
Raw Report
METAR YGLA 240130Z AUTO 08010KT 9999 // SCT039 29/17 Q1013
RF00.0/000.0=

Extra information for YGLA:More info

Social comments